Bucksport, South Carolina
Current Conditions -  °F | °C
As of 3:35 PM on Friday 21 Nov 2014 (Local Time) from KHYW Reporting Station
Clear Clear  
Wind Chill: 59°   Ceiling: Unl
Heat Index: 59°   Visibility: 7mi
Dew Point: 28°   Wind: 9mph
Humidity: 31%   Direction: 30°NNE
Pressure: 30.4"   Gusts: NA
Location:  33.736°N, 79.1183°W
Report Text: KHYW 212035Z AUTO 03008KT 7SM CLR 15/M02 A3040 RMK AO2
Loading
Personal Weather Stations






























Interactive Weather Map New forecast layout! Learn more

10-Day Weather Forecast

Advertisements
Track Severe Weather on mobile